sensor_id;sensor_type;location;lat;lon;timestamp;P1;durP1;ratioP1;P2;durP2;ratioP2
77234;SDS011;66253;50.526;14.974;2023-11-21T00:02:18;14.70;;;6.20;;
77234;SDS011;66253;50.526;14.974;2023-11-21T00:04:47;14.00;;;6.50;;
77234;SDS011;66253;50.526;14.974;2023-11-21T00:07:15;16.20;;;7.70;;
77234;SDS011;66253;50.526;14.974;2023-11-21T00:09:43;13.90;;;6.90;;
77234;SDS011;66253;50.526;14.974;2023-11-21T00:12:12;13.10;;;6.80;;
77234;SDS011;66253;50.526;14.974;2023-11-21T00:14:40;15.70;;;8.80;;
77234;SDS011;66253;50.526;14.974;2023-11-21T00:17:08;15.20;;;9.50;;
77234;SDS011;66253;50.526;14.974;2023-11-21T00:19:36;13.80;;;6.40;;
77234;SDS011;66253;50.526;14.974;2023-11-21T00:22:04;15.90;;;7.20;;
77234;SDS011;66253;50.526;14.974;2023-11-21T00:24:33;14.30;;;7.00;;
77234;SDS011;66253;50.526;14.974;2023-11-21T00:27:01;14.40;;;6.70;;
77234;SDS011;66253;50.526;14.974;2023-11-21T00:29:30;15.00;;;6.40;;
77234;SDS011;66253;50.526;14.974;2023-11-21T00:31:58;16.60;;;7.40;;
77234;SDS011;66253;50.526;14.974;2023-11-21T00:34:26;18.00;;;8.20;;
77234;SDS011;66253;50.526;14.974;2023-11-21T00:36:55;22.30;;;10.30;;
77234;SDS011;66253;50.526;14.974;2023-11-21T00:39:23;22.20;;;10.20;;
77234;SDS011;66253;50.526;14.974;2023-11-21T00:41:51;19.70;;;8.60;;
77234;SDS011;66253;50.526;14.974;2023-11-21T00:44:19;18.40;;;9.40;;
77234;SDS011;66253;50.526;14.974;2023-11-21T00:46:48;21.50;;;10.70;;
77234;SDS011;66253;50.526;14.974;2023-11-21T00:49:16;18.80;;;9.20;;
77234;SDS011;66253;50.526;14.974;2023-11-21T00:51:44;17.60;;;8.30;;
77234;SDS011;66253;50.526;14.974;2023-11-21T00:54:12;18.30;;;8.80;;
77234;SDS011;66253;50.526;14.974;2023-11-21T00:56:40;15.60;;;7.20;;
77234;SDS011;66253;50.526;14.974;2023-11-21T00:59:09;16.20;;;8.60;;
77234;SDS011;66253;50.526;14.974;2023-11-21T01:01:37;17.20;;;10.00;;
77234;SDS011;66253;50.526;14.974;2023-11-21T01:04:05;18.30;;;8.80;;
77234;SDS011;66253;50.526;14.974;2023-11-21T01:06:33;15.70;;;8.20;;
77234;SDS011;66253;50.526;14.974;2023-11-21T01:09:02;15.90;;;7.90;;
77234;SDS011;66253;50.526;14.974;2023-11-21T01:11:30;13.70;;;6.10;;
77234;SDS011;66253;50.526;14.974;2023-11-21T01:13:58;11.80;;;6.00;;
77234;SDS011;66253;50.526;14.974;2023-11-21T01:16:27;14.40;;;6.60;;
77234;SDS011;66253;50.526;14.974;2023-11-21T01:18:55;16.20;;;7.30;;
77234;SDS011;66253;50.526;14.974;2023-11-21T01:21:23;11.50;;;6.50;;
77234;SDS011;66253;50.526;14.974;2023-11-21T01:23:52;15.90;;;7.70;;
77234;SDS011;66253;50.526;14.974;2023-11-21T01:26:20;15.80;;;7.90;;
77234;SDS011;66253;50.526;14.974;2023-11-21T01:28:48;13.60;;;6.50;;
77234;SDS011;66253;50.526;14.974;2023-11-21T01:31:16;15.80;;;6.40;;
77234;SDS011;66253;50.526;14.974;2023-11-21T01:33:44;15.00;;;6.50;;
77234;SDS011;66253;50.526;14.974;2023-11-21T01:36:13;19.20;;;8.10;;
77234;SDS011;66253;50.526;14.974;2023-11-21T01:38:41;22.00;;;11.30;;
77234;SDS011;66253;50.526;14.974;2023-11-21T01:41:09;16.10;;;7.20;;
77234;SDS011;66253;50.526;14.974;2023-11-21T01:43:37;16.60;;;8.40;;
77234;SDS011;66253;50.526;14.974;2023-11-21T01:46:06;17.20;;;8.50;;
77234;SDS011;66253;50.526;14.974;2023-11-21T01:48:36;17.90;;;9.10;;
77234;SDS011;66253;50.526;14.974;2023-11-21T01:51:05;18.70;;;8.80;;
77234;SDS011;66253;50.526;14.974;2023-11-21T01:53:33;22.90;;;10.80;;
77234;SDS011;66253;50.526;14.974;2023-11-21T01:56:02;25.70;;;12.70;;
77234;SDS011;66253;50.526;14.974;2023-11-21T01:58:31;36.90;;;15.00;;
77234;SDS011;66253;50.526;14.974;2023-11-21T02:01:00;30.00;;;13.20;;
77234;SDS011;66253;50.526;14.974;2023-11-21T02:03:31;24.50;;;10.70;;
77234;SDS011;66253;50.526;14.974;2023-11-21T02:08:27;14.90;;;6.90;;
77234;SDS011;66253;50.526;14.974;2023-11-21T02:10:58;16.70;;;6.90;;
77234;SDS011;66253;50.526;14.974;2023-11-21T02:13:26;10.40;;;4.70;;
77234;SDS011;66253;50.526;14.974;2023-11-21T02:15:54;9.50;;;3.50;;
77234;SDS011;66253;50.526;14.974;2023-11-21T02:18:22;7.90;;;3.40;;
77234;SDS011;66253;50.526;14.974;2023-11-21T02:20:51;11.60;;;5.00;;
77234;SDS011;66253;50.526;14.974;2023-11-21T02:23:19;10.70;;;4.50;;
77234;SDS011;66253;50.526;14.974;2023-11-21T02:25:47;7.60;;;3.10;;
77234;SDS011;66253;50.526;14.974;2023-11-21T02:28:15;6.30;;;2.80;;
77234;SDS011;66253;50.526;14.974;2023-11-21T02:30:43;8.50;;;3.50;;
77234;SDS011;66253;50.526;14.974;2023-11-21T02:33:12;7.70;;;2.70;;
77234;SDS011;66253;50.526;14.974;2023-11-21T02:35:41;7.00;;;2.80;;
77234;SDS011;66253;50.526;14.974;2023-11-21T02:38:10;5.60;;;2.30;;
77234;SDS011;66253;50.526;14.974;2023-11-21T02:40:38;7.10;;;2.60;;
77234;SDS011;66253;50.526;14.974;2023-11-21T02:43:06;7.10;;;2.30;;
77234;SDS011;66253;50.526;14.974;2023-11-21T02:45:34;7.70;;;2.40;;
77234;SDS011;66253;50.526;14.974;2023-11-21T02:48:03;9.90;;;2.60;;
77234;SDS011;66253;50.526;14.974;2023-11-21T02:50:31;6.50;;;2.30;;
77234;SDS011;66253;50.526;14.974;2023-11-21T02:52:59;6.00;;;2.30;;
77234;SDS011;66253;50.526;14.974;2023-11-21T02:55:27;7.10;;;2.40;;
77234;SDS011;66253;50.526;14.974;2023-11-21T02:57:56;7.80;;;2.50;;
77234;SDS011;66253;50.526;14.974;2023-11-21T03:00:24;6.60;;;2.50;;
77234;SDS011;66253;50.526;14.974;2023-11-21T03:02:52;5.80;;;2.20;;
77234;SDS011;66253;50.526;14.974;2023-11-21T03:05:21;7.70;;;2.50;;
77234;SDS011;66253;50.526;14.974;2023-11-21T03:07:49;5.30;;;2.20;;
77234;SDS011;66253;50.526;14.974;2023-11-21T03:10:17;6.10;;;1.80;;
77234;SDS011;66253;50.526;14.974;2023-11-21T03:12:45;5.60;;;2.10;;
77234;SDS011;66253;50.526;14.974;2023-11-21T03:15:14;5.70;;;2.60;;
77234;SDS011;66253;50.526;14.974;2023-11-21T03:17:42;5.30;;;2.10;;
77234;SDS011;66253;50.526;14.974;2023-11-21T03:20:11;9.60;;;3.00;;
77234;SDS011;66253;50.526;14.974;2023-11-21T03:22:39;9.00;;;3.10;;
77234;SDS011;66253;50.526;14.974;2023-11-21T03:25:08;7.40;;;2.50;;
77234;SDS011;66253;50.526;14.974;2023-11-21T03:27:36;6.20;;;2.50;;
77234;SDS011;66253;50.526;14.974;2023-11-21T03:30:05;7.60;;;2.90;;
77234;SDS011;66253;50.526;14.974;2023-11-21T03:32:35;6.20;;;2.90;;
77234;SDS011;66253;50.526;14.974;2023-11-21T03:35:03;6.40;;;2.40;;
77234;SDS011;66253;50.526;14.974;2023-11-21T03:37:32;14.20;;;10.10;;
77234;SDS011;66253;50.526;14.974;2023-11-21T03:40:01;10.80;;;5.60;;
77234;SDS011;66253;50.526;14.974;2023-11-21T03:42:31;7.70;;;3.40;;
77234;SDS011;66253;50.526;14.974;2023-11-21T03:44:59;6.40;;;2.40;;
77234;SDS011;66253;50.526;14.974;2023-11-21T03:47:28;8.00;;;2.80;;
77234;SDS011;66253;50.526;14.974;2023-11-21T03:49:56;9.90;;;2.70;;
77234;SDS011;66253;50.526;14.974;2023-11-21T03:52:25;5.50;;;2.40;;
77234;SDS011;66253;50.526;14.974;2023-11-21T03:54:53;7.70;;;2.30;;
77234;SDS011;66253;50.526;14.974;2023-11-21T03:57:21;7.60;;;2.40;;
77234;SDS011;66253;50.526;14.974;2023-11-21T03:59:49;6.80;;;2.50;;
77234;SDS011;66253;50.526;14.974;2023-11-21T04:02:18;5.10;;;1.90;;
77234;SDS011;66253;50.526;14.974;2023-11-21T04:04:46;5.90;;;1.90;;
77234;SDS011;66253;50.526;14.974;2023-11-21T04:07:14;6.60;;;2.40;;
77234;SDS011;66253;50.526;14.974;2023-11-21T04:09:43;7.50;;;2.60;;
77234;SDS011;66253;50.526;14.974;2023-11-21T04:12:11;5.30;;;2.20;;
77234;SDS011;66253;50.526;14.974;2023-11-21T04:14:39;6.40;;;2.40;;
77234;SDS011;66253;50.526;14.974;2023-11-21T04:17:07;6.90;;;2.40;;
77234;SDS011;66253;50.526;14.974;2023-11-21T04:19:35;6.80;;;2.10;;
77234;SDS011;66253;50.526;14.974;2023-11-21T04:22:04;5.90;;;2.50;;
77234;SDS011;66253;50.526;14.974;2023-11-21T04:24:32;5.50;;;2.10;;
77234;SDS011;66253;50.526;14.974;2023-11-21T04:27:00;7.10;;;2.60;;
77234;SDS011;66253;50.526;14.974;2023-11-21T04:29:29;9.90;;;2.80;;
77234;SDS011;66253;50.526;14.974;2023-11-21T04:31:57;5.80;;;2.60;;
77234;SDS011;66253;50.526;14.974;2023-11-21T04:34:25;6.40;;;2.70;;
77234;SDS011;66253;50.526;14.974;2023-11-21T04:36:56;7.90;;;3.00;;
77234;SDS011;66253;50.526;14.974;2023-11-21T04:39:24;7.50;;;2.70;;
77234;SDS011;66253;50.526;14.974;2023-11-21T04:41:52;7.00;;;2.60;;
77234;SDS011;66253;50.526;14.974;2023-11-21T04:44:20;6.60;;;2.70;;
77234;SDS011;66253;50.526;14.974;2023-11-21T04:46:49;5.10;;;2.50;;
77234;SDS011;66253;50.526;14.974;2023-11-21T04:49:17;7.10;;;2.70;;
77234;SDS011;66253;50.526;14.974;2023-11-21T04:51:45;8.70;;;2.60;;
77234;SDS011;66253;50.526;14.974;2023-11-21T04:54:13;6.20;;;2.60;;
77234;SDS011;66253;50.526;14.974;2023-11-21T04:56:41;9.20;;;3.50;;
77234;SDS011;66253;50.526;14.974;2023-11-21T04:59:09;7.90;;;3.30;;
77234;SDS011;66253;50.526;14.974;2023-11-21T05:01:38;6.70;;;2.90;;
77234;SDS011;66253;50.526;14.974;2023-11-21T05:04:06;7.90;;;3.00;;
77234;SDS011;66253;50.526;14.974;2023-11-21T05:06:34;7.60;;;2.90;;
77234;SDS011;66253;50.526;14.974;2023-11-21T05:09:03;6.60;;;3.50;;
77234;SDS011;66253;50.526;14.974;2023-11-21T05:11:31;6.00;;;2.40;;
77234;SDS011;66253;50.526;14.974;2023-11-21T05:14:00;7.50;;;3.10;;
77234;SDS011;66253;50.526;14.974;2023-11-21T05:16:28;5.30;;;2.30;;
77234;SDS011;66253;50.526;14.974;2023-11-21T05:18:57;7.30;;;2.70;;
77234;SDS011;66253;50.526;14.974;2023-11-21T05:21:25;5.90;;;2.60;;
77234;SDS011;66253;50.526;14.974;2023-11-21T05:23:53;5.40;;;2.20;;
77234;SDS011;66253;50.526;14.974;2023-11-21T05:26:22;7.50;;;3.20;;
77234;SDS011;66253;50.526;14.974;2023-11-21T05:28:50;8.20;;;2.90;;
77234;SDS011;66253;50.526;14.974;2023-11-21T05:31:18;5.50;;;2.40;;
77234;SDS011;66253;50.526;14.974;2023-11-21T05:33:47;6.60;;;2.80;;
77234;SDS011;66253;50.526;14.974;2023-11-21T05:36:15;6.60;;;2.40;;
77234;SDS011;66253;50.526;14.974;2023-11-21T05:38:43;6.00;;;2.40;;
77234;SDS011;66253;50.526;14.974;2023-11-21T05:41:11;5.20;;;2.00;;
77234;SDS011;66253;50.526;14.974;2023-11-21T05:43:39;6.00;;;2.70;;
77234;SDS011;66253;50.526;14.974;2023-11-21T05:46:08;5.50;;;2.30;;
77234;SDS011;66253;50.526;14.974;2023-11-21T05:48:36;7.80;;;2.50;;
77234;SDS011;66253;50.526;14.974;2023-11-21T05:51:05;7.90;;;2.70;;
77234;SDS011;66253;50.526;14.974;2023-11-21T05:53:34;6.00;;;2.60;;
77234;SDS011;66253;50.526;14.974;2023-11-21T05:56:02;6.20;;;2.00;;
77234;SDS011;66253;50.526;14.974;2023-11-21T05:58:31;6.40;;;2.60;;
77234;SDS011;66253;50.526;14.974;2023-11-21T06:00:59;7.80;;;2.80;;
77234;SDS011;66253;50.526;14.974;2023-11-21T06:03:27;7.30;;;2.90;;
77234;SDS011;66253;50.526;14.974;2023-11-21T06:05:56;6.90;;;2.60;;
77234;SDS011;66253;50.526;14.974;2023-11-21T06:08:24;9.00;;;2.60;;
77234;SDS011;66253;50.526;14.974;2023-11-21T06:10:52;7.60;;;3.10;;
77234;SDS011;66253;50.526;14.974;2023-11-21T06:13:20;6.10;;;2.70;;
77234;SDS011;66253;50.526;14.974;2023-11-21T06:15:48;6.20;;;2.80;;
77234;SDS011;66253;50.526;14.974;2023-11-21T06:18:17;6.60;;;3.00;;
77234;SDS011;66253;50.526;14.974;2023-11-21T06:20:45;8.40;;;3.00;;
77234;SDS011;66253;50.526;14.974;2023-11-21T06:23:13;6.20;;;2.40;;
77234;SDS011;66253;50.526;14.974;2023-11-21T06:25:41;6.70;;;2.80;;
77234;SDS011;66253;50.526;14.974;2023-11-21T06:28:10;9.40;;;3.10;;
77234;SDS011;66253;50.526;14.974;2023-11-21T06:30:38;7.90;;;3.50;;
77234;SDS011;66253;50.526;14.974;2023-11-21T06:33:06;7.70;;;3.40;;
77234;SDS011;66253;50.526;14.974;2023-11-21T06:35:34;8.30;;;3.80;;
77234;SDS011;66253;50.526;14.974;2023-11-21T06:38:03;10.00;;;4.20;;
77234;SDS011;66253;50.526;14.974;2023-11-21T06:40:31;26.10;;;6.30;;
77234;SDS011;66253;50.526;14.974;2023-11-21T06:42:59;26.70;;;6.20;;
77234;SDS011;66253;50.526;14.974;2023-11-21T06:45:28;28.00;;;7.50;;
77234;SDS011;66253;50.526;14.974;2023-11-21T06:47:56;23.60;;;6.10;;
77234;SDS011;66253;50.526;14.974;2023-11-21T06:50:25;15.40;;;5.60;;
77234;SDS011;66253;50.526;14.974;2023-11-21T06:52:53;16.30;;;4.70;;
77234;SDS011;66253;50.526;14.974;2023-11-21T06:55:21;19.70;;;5.10;;
77234;SDS011;66253;50.526;14.974;2023-11-21T06:57:50;20.30;;;6.30;;
77234;SDS011;66253;50.526;14.974;2023-11-21T07:00:18;22.30;;;6.90;;
77234;SDS011;66253;50.526;14.974;2023-11-21T07:02:47;25.80;;;9.50;;
77234;SDS011;66253;50.526;14.974;2023-11-21T07:05:15;21.90;;;7.90;;
77234;SDS011;66253;50.526;14.974;2023-11-21T07:07:43;32.30;;;9.50;;
77234;SDS011;66253;50.526;14.974;2023-11-21T07:10:12;27.00;;;8.90;;
77234;SDS011;66253;50.526;14.974;2023-11-21T07:12:40;40.00;;;10.70;;
77234;SDS011;66253;50.526;14.974;2023-11-21T07:15:09;36.40;;;11.20;;
77234;SDS011;66253;50.526;14.974;2023-11-21T07:17:37;34.80;;;10.30;;
77234;SDS011;66253;50.526;14.974;2023-11-21T07:20:06;34.20;;;10.30;;
77234;SDS011;66253;50.526;14.974;2023-11-21T07:22:35;21.10;;;7.20;;
77234;SDS011;66253;50.526;14.974;2023-11-21T07:25:04;18.80;;;6.50;;
77234;SDS011;66253;50.526;14.974;2023-11-21T07:27:33;17.60;;;6.00;;
77234;SDS011;66253;50.526;14.974;2023-11-21T07:30:01;21.80;;;6.90;;
77234;SDS011;66253;50.526;14.974;2023-11-21T07:34:58;15.70;;;5.20;;
77234;SDS011;66253;50.526;14.974;2023-11-21T07:37:26;14.80;;;5.00;;
77234;SDS011;66253;50.526;14.974;2023-11-21T07:39:54;13.60;;;4.90;;
77234;SDS011;66253;50.526;14.974;2023-11-21T07:42:22;15.90;;;5.80;;
77234;SDS011;66253;50.526;14.974;2023-11-21T07:44:51;18.60;;;6.80;;
77234;SDS011;66253;50.526;14.974;2023-11-21T07:47:19;16.40;;;7.00;;
77234;SDS011;66253;50.526;14.974;2023-11-21T07:49:47;13.40;;;6.20;;
77234;SDS011;66253;50.526;14.974;2023-11-21T07:52:15;15.00;;;6.10;;
77234;SDS011;66253;50.526;14.974;2023-11-21T07:54:43;11.70;;;5.90;;
77234;SDS011;66253;50.526;14.974;2023-11-21T07:57:12;10.70;;;4.90;;
77234;SDS011;66253;50.526;14.974;2023-11-21T07:59:40;10.90;;;6.20;;
77234;SDS011;66253;50.526;14.974;2023-11-21T08:02:08;10.20;;;4.00;;
77234;SDS011;66253;50.526;14.974;2023-11-21T08:04:36;10.70;;;4.20;;
77234;SDS011;66253;50.526;14.974;2023-11-21T08:07:05;11.10;;;5.90;;
77234;SDS011;66253;50.526;14.974;2023-11-21T08:09:34;10.00;;;5.00;;
77234;SDS011;66253;50.526;14.974;2023-11-21T08:12:02;11.10;;;5.60;;
77234;SDS011;66253;50.526;14.974;2023-11-21T08:14:31;11.40;;;5.00;;
77234;SDS011;66253;50.526;14.974;2023-11-21T08:16:59;13.20;;;5.70;;
77234;SDS011;66253;50.526;14.974;2023-11-21T08:19:27;10.30;;;5.40;;
77234;SDS011;66253;50.526;14.974;2023-11-21T08:21:55;11.90;;;5.40;;
77234;SDS011;66253;50.526;14.974;2023-11-21T08:24:23;9.60;;;5.00;;
77234;SDS011;66253;50.526;14.974;2023-11-21T08:26:52;10.60;;;5.30;;
77234;SDS011;66253;50.526;14.974;2023-11-21T08:29:21;11.40;;;6.20;;
77234;SDS011;66253;50.526;14.974;2023-11-21T08:31:49;10.40;;;5.80;;
77234;SDS011;66253;50.526;14.974;2023-11-21T08:34:17;9.60;;;5.10;;
77234;SDS011;66253;50.526;14.974;2023-11-21T08:36:45;11.20;;;5.40;;
77234;SDS011;66253;50.526;14.974;2023-11-21T08:39:13;11.60;;;5.60;;
77234;SDS011;66253;50.526;14.974;2023-11-21T08:41:42;15.80;;;7.80;;
77234;SDS011;66253;50.526;14.974;2023-11-21T08:44:10;16.10;;;7.30;;
77234;SDS011;66253;50.526;14.974;2023-11-21T08:46:38;14.00;;;7.60;;
77234;SDS011;66253;50.526;14.974;2023-11-21T08:49:06;15.50;;;8.10;;
77234;SDS011;66253;50.526;14.974;2023-11-21T08:51:35;13.70;;;6.90;;
77234;SDS011;66253;50.526;14.974;2023-11-21T08:54:03;11.90;;;5.90;;
77234;SDS011;66253;50.526;14.974;2023-11-21T08:56:32;15.30;;;6.20;;
77234;SDS011;66253;50.526;14.974;2023-11-21T08:59:00;11.30;;;5.30;;
77234;SDS011;66253;50.526;14.974;2023-11-21T09:01:28;11.60;;;4.80;;
77234;SDS011;66253;50.526;14.974;2023-11-21T09:03:57;24.90;;;10.50;;
77234;SDS011;66253;50.526;14.974;2023-11-21T09:06:26;15.00;;;7.10;;
77234;SDS011;66253;50.526;14.974;2023-11-21T09:08:54;11.60;;;5.80;;
77234;SDS011;66253;50.526;14.974;2023-11-21T09:11:23;11.80;;;4.60;;
77234;SDS011;66253;50.526;14.974;2023-11-21T09:13:52;12.30;;;6.00;;
77234;SDS011;66253;50.526;14.974;2023-11-21T09:16:20;12.20;;;6.00;;
77234;SDS011;66253;50.526;14.974;2023-11-21T09:18:48;11.40;;;5.20;;
77234;SDS011;66253;50.526;14.974;2023-11-21T09:21:16;12.20;;;4.90;;
77234;SDS011;66253;50.526;14.974;2023-11-21T09:23:45;14.20;;;5.20;;
77234;SDS011;66253;50.526;14.974;2023-11-21T09:26:14;13.20;;;7.20;;
77234;SDS011;66253;50.526;14.974;2023-11-21T09:28:43;13.50;;;6.30;;
77234;SDS011;66253;50.526;14.974;2023-11-21T09:31:14;12.10;;;5.70;;
77234;SDS011;66253;50.526;14.974;2023-11-21T09:33:42;12.80;;;5.60;;
77234;SDS011;66253;50.526;14.974;2023-11-21T09:36:12;13.60;;;6.60;;
77234;SDS011;66253;50.526;14.974;2023-11-21T09:38:40;14.20;;;6.10;;
77234;SDS011;66253;50.526;14.974;2023-11-21T09:41:11;11.50;;;5.30;;
77234;SDS011;66253;50.526;14.974;2023-11-21T09:43:47;12.70;;;6.10;;
77234;SDS011;66253;50.526;14.974;2023-11-21T09:46:21;11.00;;;5.20;;
77234;SDS011;66253;50.526;14.974;2023-11-21T09:48:50;10.30;;;4.40;;
77234;SDS011;66253;50.526;14.974;2023-11-21T09:51:20;12.30;;;3.70;;
77234;SDS011;66253;50.526;14.974;2023-11-21T09:53:53;9.40;;;3.70;;
77234;SDS011;66253;50.526;14.974;2023-11-21T09:58:51;8.40;;;2.80;;
77234;SDS011;66253;50.526;14.974;2023-11-21T10:01:20;7.60;;;2.60;;
77234;SDS011;66253;50.526;14.974;2023-11-21T10:06:16;5.70;;;2.30;;
77234;SDS011;66253;50.526;14.974;2023-11-21T10:08:46;8.90;;;2.80;;
77234;SDS011;66253;50.526;14.974;2023-11-21T10:11:15;8.60;;;3.30;;
77234;SDS011;66253;50.526;14.974;2023-11-21T10:13:46;9.70;;;3.50;;
77234;SDS011;66253;50.526;14.974;2023-11-21T10:16:16;9.80;;;2.70;;
77234;SDS011;66253;50.526;14.974;2023-11-21T10:18:49;8.50;;;3.10;;
77234;SDS011;66253;50.526;14.974;2023-11-21T10:21:20;8.40;;;2.60;;
77234;SDS011;66253;50.526;14.974;2023-11-21T10:23:48;7.80;;;3.20;;
77234;SDS011;66253;50.526;14.974;2023-11-21T10:26:18;9.80;;;4.60;;
77234;SDS011;66253;50.526;14.974;2023-11-21T10:28:56;8.00;;;3.70;;
77234;SDS011;66253;50.526;14.974;2023-11-21T10:31:25;9.30;;;3.40;;
77234;SDS011;66253;50.526;14.974;2023-11-21T10:33:54;7.40;;;3.00;;
77234;SDS011;66253;50.526;14.974;2023-11-21T10:36:26;8.70;;;3.00;;
77234;SDS011;66253;50.526;14.974;2023-11-21T10:38:57;5.80;;;1.70;;
77234;SDS011;66253;50.526;14.974;2023-11-21T10:41:26;6.20;;;1.60;;
77234;SDS011;66253;50.526;14.974;2023-11-21T10:43:54;4.70;;;2.00;;
77234;SDS011;66253;50.526;14.974;2023-11-21T10:46:23;8.80;;;2.40;;
77234;SDS011;66253;50.526;14.974;2023-11-21T10:48:53;12.40;;;3.70;;
77234;SDS011;66253;50.526;14.974;2023-11-21T10:51:21;7.70;;;2.00;;
77234;SDS011;66253;50.526;14.974;2023-11-21T10:53:49;12.10;;;2.60;;
77234;SDS011;66253;50.526;14.974;2023-11-21T10:56:19;5.50;;;1.70;;
77234;SDS011;66253;50.526;14.974;2023-11-21T10:58:49;7.20;;;2.30;;
77234;SDS011;66253;50.526;14.974;2023-11-21T11:01:19;8.60;;;2.70;;
77234;SDS011;66253;50.526;14.974;2023-11-21T11:03:49;6.70;;;2.50;;
77234;SDS011;66253;50.526;14.974;2023-11-21T11:06:20;10.50;;;3.30;;
77234;SDS011;66253;50.526;14.974;2023-11-21T11:08:50;12.20;;;3.50;;
77234;SDS011;66253;50.526;14.974;2023-11-21T11:11:20;11.00;;;3.10;;
77234;SDS011;66253;50.526;14.974;2023-11-21T11:13:48;11.10;;;4.10;;
77234;SDS011;66253;50.526;14.974;2023-11-21T11:16:17;8.90;;;3.80;;
77234;SDS011;66253;50.526;14.974;2023-11-21T11:18:46;8.30;;;3.70;;
77234;SDS011;66253;50.526;14.974;2023-11-21T11:21:29;11.80;;;4.40;;
77234;SDS011;66253;50.526;14.974;2023-11-21T11:24:11;11.10;;;3.90;;
77234;SDS011;66253;50.526;14.974;2023-11-21T11:26:48;8.30;;;2.70;;
77234;SDS011;66253;50.526;14.974;2023-11-21T11:29:27;7.90;;;2.60;;
77234;SDS011;66253;50.526;14.974;2023-11-21T11:32:06;11.30;;;4.40;;
77234;SDS011;66253;50.526;14.974;2023-11-21T11:34:44;10.70;;;5.00;;
77234;SDS011;66253;50.526;14.974;2023-11-21T11:37:15;9.60;;;3.90;;
77234;SDS011;66253;50.526;14.974;2023-11-21T11:39:43;11.20;;;3.90;;
77234;SDS011;66253;50.526;14.974;2023-11-21T11:42:13;8.90;;;3.30;;
77234;SDS011;66253;50.526;14.974;2023-11-21T11:44:50;8.90;;;3.20;;
77234;SDS011;66253;50.526;14.974;2023-11-21T11:47:21;11.00;;;3.50;;
77234;SDS011;66253;50.526;14.974;2023-11-21T11:50:06;7.40;;;3.80;;
77234;SDS011;66253;50.526;14.974;2023-11-21T11:52:40;7.60;;;3.10;;
77234;SDS011;66253;50.526;14.974;2023-11-21T11:55:09;8.00;;;2.90;;
77234;SDS011;66253;50.526;14.974;2023-11-21T11:57:39;5.60;;;2.10;;
77234;SDS011;66253;50.526;14.974;2023-11-21T12:00:08;7.50;;;2.20;;
77234;SDS011;66253;50.526;14.974;2023-11-21T12:05:08;5.00;;;1.70;;
77234;SDS011;66253;50.526;14.974;2023-11-21T12:07:42;5.90;;;2.80;;
77234;SDS011;66253;50.526;14.974;2023-11-21T12:10:12;5.60;;;1.90;;
77234;SDS011;66253;50.526;14.974;2023-11-21T12:12:45;8.80;;;2.10;;
77234;SDS011;66253;50.526;14.974;2023-11-21T12:15:14;8.30;;;2.70;;
77234;SDS011;66253;50.526;14.974;2023-11-21T12:17:43;6.20;;;1.90;;
77234;SDS011;66253;50.526;14.974;2023-11-21T12:20:13;10.00;;;2.10;;
77234;SDS011;66253;50.526;14.974;2023-11-21T12:25:15;6.70;;;1.70;;
77234;SDS011;66253;50.526;14.974;2023-11-21T12:27:47;5.30;;;1.70;;
77234;SDS011;66253;50.526;14.974;2023-11-21T12:30:17;5.40;;;1.80;;
77234;SDS011;66253;50.526;14.974;2023-11-21T12:32:47;4.60;;;1.70;;
77234;SDS011;66253;50.526;14.974;2023-11-21T12:35:17;5.20;;;1.90;;
77234;SDS011;66253;50.526;14.974;2023-11-21T12:37:46;7.20;;;3.30;;
77234;SDS011;66253;50.526;14.974;2023-11-21T12:40:15;6.00;;;2.90;;
77234;SDS011;66253;50.526;14.974;2023-11-21T12:42:44;5.50;;;2.50;;
77234;SDS011;66253;50.526;14.974;2023-11-21T12:45:20;6.80;;;2.00;;
77234;SDS011;66253;50.526;14.974;2023-11-21T12:47:50;5.60;;;1.80;;
77234;SDS011;66253;50.526;14.974;2023-11-21T12:50:21;7.40;;;2.40;;
77234;SDS011;66253;50.526;14.974;2023-11-21T12:52:50;6.90;;;2.20;;
77234;SDS011;66253;50.526;14.974;2023-11-21T12:55:19;7.00;;;3.10;;
77234;SDS011;66253;50.526;14.974;2023-11-21T12:57:49;6.40;;;2.00;;
77234;SDS011;66253;50.526;14.974;2023-11-21T13:00:18;4.10;;;1.60;;
77234;SDS011;66253;50.526;14.974;2023-11-21T13:02:57;6.00;;;2.70;;
77234;SDS011;66253;50.526;14.974;2023-11-21T13:05:28;4.50;;;1.60;;
77234;SDS011;66253;50.526;14.974;2023-11-21T13:07:58;6.00;;;1.80;;
77234;SDS011;66253;50.526;14.974;2023-11-21T13:10:29;5.60;;;1.90;;
77234;SDS011;66253;50.526;14.974;2023-11-21T13:12:58;9.20;;;2.60;;
77234;SDS011;66253;50.526;14.974;2023-11-21T13:15:27;4.50;;;2.00;;
77234;SDS011;66253;50.526;14.974;2023-11-21T13:17:56;4.60;;;1.90;;
77234;SDS011;66253;50.526;14.974;2023-11-21T13:20:24;5.70;;;2.20;;
77234;SDS011;66253;50.526;14.974;2023-11-21T13:22:53;4.50;;;2.20;;
77234;SDS011;66253;50.526;14.974;2023-11-21T13:25:22;4.70;;;2.60;;
77234;SDS011;66253;50.526;14.974;2023-11-21T13:27:51;7.00;;;3.00;;
77234;SDS011;66253;50.526;14.974;2023-11-21T13:30:19;5.60;;;2.10;;
77234;SDS011;66253;50.526;14.974;2023-11-21T13:32:48;7.30;;;2.70;;
77234;SDS011;66253;50.526;14.974;2023-11-21T13:35:16;5.40;;;1.70;;
77234;SDS011;66253;50.526;14.974;2023-11-21T13:37:45;6.10;;;2.30;;
77234;SDS011;66253;50.526;14.974;2023-11-21T13:40:14;6.10;;;2.10;;
77234;SDS011;66253;50.526;14.974;2023-11-21T13:42:43;4.90;;;2.00;;
77234;SDS011;66253;50.526;14.974;2023-11-21T13:45:11;7.00;;;3.30;;
77234;SDS011;66253;50.526;14.974;2023-11-21T13:47:40;5.60;;;2.60;;
77234;SDS011;66253;50.526;14.974;2023-11-21T13:50:08;4.90;;;1.50;;
77234;SDS011;66253;50.526;14.974;2023-11-21T13:52:36;5.20;;;1.80;;
77234;SDS011;66253;50.526;14.974;2023-11-21T13:55:05;5.20;;;2.80;;
77234;SDS011;66253;50.526;14.974;2023-11-21T13:57:34;5.30;;;3.40;;
77234;SDS011;66253;50.526;14.974;2023-11-21T14:00:02;3.90;;;1.80;;
77234;SDS011;66253;50.526;14.974;2023-11-21T14:02:31;3.60;;;1.30;;
77234;SDS011;66253;50.526;14.974;2023-11-21T14:04:59;4.50;;;1.40;;
77234;SDS011;66253;50.526;14.974;2023-11-21T14:07:28;4.60;;;2.40;;
77234;SDS011;66253;50.526;14.974;2023-11-21T14:09:56;7.70;;;2.30;;
77234;SDS011;66253;50.526;14.974;2023-11-21T14:12:26;5.50;;;1.60;;
77234;SDS011;66253;50.526;14.974;2023-11-21T14:14:55;4.00;;;1.30;;
77234;SDS011;66253;50.526;14.974;2023-11-21T14:17:23;5.70;;;2.00;;
77234;SDS011;66253;50.526;14.974;2023-11-21T14:19:51;3.90;;;1.90;;
77234;SDS011;66253;50.526;14.974;2023-11-21T14:22:19;7.00;;;4.00;;
77234;SDS011;66253;50.526;14.974;2023-11-21T14:24:48;7.30;;;3.70;;
77234;SDS011;66253;50.526;14.974;2023-11-21T14:27:16;5.50;;;1.70;;
77234;SDS011;66253;50.526;14.974;2023-11-21T14:29:47;5.60;;;2.10;;
77234;SDS011;66253;50.526;14.974;2023-11-21T14:32:15;3.00;;;1.20;;
77234;SDS011;66253;50.526;14.974;2023-11-21T14:34:43;3.90;;;1.20;;
77234;SDS011;66253;50.526;14.974;2023-11-21T14:37:11;3.60;;;1.20;;
77234;SDS011;66253;50.526;14.974;2023-11-21T14:39:40;3.70;;;1.20;;
77234;SDS011;66253;50.526;14.974;2023-11-21T14:42:08;4.10;;;1.90;;
77234;SDS011;66253;50.526;14.974;2023-11-21T14:44:36;4.90;;;1.60;;
77234;SDS011;66253;50.526;14.974;2023-11-21T14:47:05;5.60;;;1.30;;
77234;SDS011;66253;50.526;14.974;2023-11-21T14:49:33;4.60;;;1.80;;
77234;SDS011;66253;50.526;14.974;2023-11-21T14:52:01;4.90;;;1.70;;
77234;SDS011;66253;50.526;14.974;2023-11-21T14:54:30;8.00;;;2.10;;